Welcome to La Porte Aviation Services!

An aviation adventure awaits

Current Weather Conditions

Available data for KPPO from the past 2 hours
LA PORTE, IN
Metar
KPPO 211335Z AUTO 25012G15KT 190V350 10SM CLR 23/21 A2985 RMK AO2 T02250208

13:35 UTC

Wind: 250° 12kt

Visibility: 10 SM

Sky:

Temp: 23 deg C / 73.4 deg F

Dewpoint: 21 deg C / 69.8 deg F

Pressure: 29.85 inHg

Pireps (8)
JOT UA /OV JOT/TM 1332/FL370/TP B737/TB CONS LGT OCNL MOD CHOP
LAF UA /OV LAF090003/TM 1323/FL020/TP C172/WX FV04SM BR
RPJ UA /OV PMM090040/TM 1322/FL200/TP E170/TB CONS LGT OCNL MOD CHOP
SBN UA /OV GIJ0900030/TM 1308/FL310/TP A319/SK TOP 310-350/TB CONS LGT CHOP
JOT UA /OV JOT180015/TM 1252/FL340/TP A21N/TB MOD
LAF UA /OV BVT300015/TM 1227/FL260/TP B737/SK TOP245
SBN UA /OV GIJ/TM 1156/FL260/TP BE20/TA M18/IC LGT RIME
AZO UA /OV LFD190035/TM 1156/FL290/TP B737/TA M31/IC LGT RIME

Connect with us on Facebook!

Facebook By Weblizar Powered By Weblizar